createdAt,value
2022-12-25T00:01:42.761Z,99269.56
2022-12-25T00:04:09.694Z,99266.22
2022-12-25T00:06:36.668Z,99283.94
2022-12-25T00:09:03.547Z,99288.06
2022-12-25T00:11:30.350Z,99291.38
2022-12-25T00:13:57.065Z,99300.78
2022-12-25T00:16:26.627Z,99295.63
2022-12-25T00:18:54.469Z,99310.91
2022-12-25T00:21:22.009Z,99315.94
2022-12-25T00:23:53.442Z,99302.53
2022-12-25T00:26:20.238Z,99319.38
2022-12-25T00:28:47.127Z,99326.13
2022-12-25T00:31:16.863Z,99322.72
2022-12-25T00:33:45.753Z,99324.47
2022-12-25T00:36:13.890Z,99327.03
2022-12-25T00:38:41.311Z,99325.16
2022-12-25T00:41:10.604Z,99331.09
2022-12-25T00:43:38.542Z,99326.66
2022-12-25T00:46:06.988Z,99329.03
2022-12-25T00:48:34.850Z,99334.00
2022-12-25T00:51:06.435Z,99345.06
2022-12-25T00:53:33.728Z,99355.03
2022-12-25T00:56:03.341Z,99345.63
2022-12-25T00:58:33.250Z,99359.97
2022-12-25T01:01:00.407Z,99356.66
2022-12-25T01:03:27.278Z,99362.19
2022-12-25T01:05:56.610Z,99355.47
2022-12-25T01:08:23.355Z,99363.78
2022-12-25T01:11:16.067Z,99371.47
2022-12-25T01:13:42.803Z,99378.03
2022-12-25T01:16:11.384Z,99383.94
2022-12-25T01:18:38.817Z,99379.59
2022-12-25T01:21:10.211Z,99375.25
2022-12-25T01:23:37.224Z,99393.13
2022-12-25T01:26:05.507Z,99381.97
2022-12-25T01:28:32.232Z,99386.72
2022-12-25T01:30:59.034Z,99384.75
2022-12-25T01:33:27.255Z,99381.38
2022-12-25T01:35:54.030Z,99386.38
2022-12-25T01:38:21.219Z,99401.50
2022-12-25T01:40:47.923Z,99400.66
2022-12-25T01:43:29.344Z,99408.56
2022-12-25T01:45:56.516Z,99418.38
2022-12-25T01:48:32.458Z,99419.19
2022-12-25T01:51:10.443Z,99418.25
2022-12-25T01:53:37.607Z,99433.50
2022-12-25T01:56:08.521Z,99434.38
2022-12-25T01:58:35.998Z,99434.31
2022-12-25T02:01:02.815Z,99440.03
2022-12-25T02:03:29.735Z,99435.84
2022-12-25T02:05:56.691Z,99439.16
2022-12-25T02:08:23.921Z,99434.16
2022-12-25T02:10:50.817Z,99433.16
2022-12-25T02:13:19.382Z,99449.91
2022-12-25T02:15:58.841Z,99455.34
2022-12-25T02:18:53.592Z,99452.88
2022-12-25T02:21:40.507Z,99466.75
2022-12-25T02:24:07.272Z,99464.75
2022-12-25T02:26:37.038Z,99472.38
2022-12-25T02:29:11.356Z,99478.63
2022-12-25T02:31:46.001Z,99478.78
2022-12-25T02:34:30.851Z,99486.06
2022-12-25T02:37:16.066Z,99484.66
2022-12-25T02:39:58.464Z,99491.97
2022-12-25T02:43:14.913Z,99506.06
2022-12-25T02:46:07.388Z,99498.72
2022-12-25T02:48:55.792Z,99496.69
2022-12-25T02:51:46.001Z,99501.84
2022-12-25T02:54:35.742Z,99515.88
2022-12-25T02:57:26.065Z,99511.38
2022-12-25T03:00:15.132Z,99530.59
2022-12-25T03:03:03.107Z,99534.31
2022-12-25T03:05:51.327Z,99539.75
2022-12-25T03:08:24.265Z,99537.03
2022-12-25T03:11:18.867Z,99537.38
2022-12-25T03:13:48.822Z,99544.47
2022-12-25T03:16:34.123Z,99536.94
2022-12-25T03:19:21.195Z,99536.06
2022-12-25T03:22:06.498Z,99545.50
2022-12-25T03:24:52.356Z,99533.69
2022-12-25T03:27:19.360Z,99552.03
2022-12-25T03:30:04.838Z,99562.81
2022-12-25T03:32:58.923Z,99566.66
2022-12-25T03:35:44.399Z,99569.53
2022-12-25T03:38:52.243Z,99570.25
2022-12-25T03:41:55.504Z,99572.88
2022-12-25T03:45:28.588Z,99582.88
2022-12-25T03:48:15.955Z,99570.84
2022-12-25T03:51:12.555Z,99572.88
2022-12-25T03:54:06.697Z,99575.25
2022-12-25T03:56:56.058Z,99583.03
2022-12-25T03:59:42.685Z,99590.13
2022-12-25T04:02:28.837Z,99588.22
2022-12-25T04:05:14.395Z,99579.84
2022-12-25T04:08:00.035Z,99589.97
2022-12-25T04:10:45.504Z,99595.34
2022-12-25T04:13:30.627Z,99599.69
2022-12-25T04:16:15.736Z,99598.97
2022-12-25T04:19:00.729Z,99605.47
2022-12-25T04:21:45.963Z,99607.06
2022-12-25T04:24:31.771Z,99601.06
2022-12-25T04:27:17.199Z,99616.06
2022-12-25T04:30:02.675Z,99626.06
2022-12-25T04:32:49.566Z,99622.41
2022-12-25T04:35:34.719Z,99622.56
2022-12-25T04:38:01.450Z,99622.16
2022-12-25T04:40:28.306Z,99627.72
2022-12-25T04:42:55.034Z,99631.81
2022-12-25T04:45:22.748Z,99628.44
2022-12-25T04:47:49.554Z,99632.56
2022-12-25T04:50:16.349Z,99638.34
2022-12-25T04:52:43.119Z,99649.13
2022-12-25T04:55:11.134Z,99647.22
2022-12-25T04:57:39.628Z,99648.00
2022-12-25T05:00:07.666Z,99663.56
2022-12-25T05:02:34.854Z,99658.03
2022-12-25T05:05:02.005Z,99659.66
2022-12-25T05:07:29.902Z,99658.03
2022-12-25T05:09:56.813Z,99678.31
2022-12-25T05:12:23.829Z,99679.56
2022-12-25T05:14:50.626Z,99673.63
2022-12-25T05:17:17.377Z,99686.13
2022-12-25T05:19:44.201Z,99691.13
2022-12-25T05:22:10.934Z,99708.09
2022-12-25T05:24:37.749Z,99704.03
2022-12-25T05:27:07.015Z,99713.78
2022-12-25T05:29:33.727Z,99720.44
2022-12-25T05:32:00.477Z,99719.25
2022-12-25T05:34:27.206Z,99719.47
2022-12-25T05:36:53.919Z,99716.41
2022-12-25T05:39:20.679Z,99732.66
2022-12-25T05:41:47.406Z,99735.97
2022-12-25T05:44:14.527Z,99736.53
2022-12-25T05:46:41.396Z,99739.16
2022-12-25T05:49:08.610Z,99742.47
2022-12-25T05:51:35.343Z,99749.28
2022-12-25T05:54:02.325Z,99748.66
2022-12-25T05:56:29.039Z,99750.16
2022-12-25T05:58:55.905Z,99749.28
2022-12-25T06:01:24.986Z,99762.75
2022-12-25T06:03:52.243Z,99766.78
2022-12-25T06:06:19.579Z,99765.03
2022-12-25T06:08:46.542Z,99765.09
2022-12-25T06:11:14.539Z,99769.56
2022-12-25T06:13:41.896Z,99759.72
2022-12-25T06:16:11.100Z,99771.28
2022-12-25T06:18:40.583Z,99774.63
2022-12-25T06:21:12.442Z,99776.22
2022-12-25T06:23:39.511Z,99773.22
2022-12-25T06:26:17.056Z,99776.75
2022-12-25T06:28:44.545Z,99774.16
2022-12-25T06:31:14.797Z,99776.69
2022-12-25T06:33:42.139Z,99780.00
2022-12-25T06:36:18.279Z,99785.25
2022-12-25T06:38:45.856Z,99784.91
2022-12-25T06:41:16.143Z,99787.44
2022-12-25T06:43:42.904Z,99792.28
2022-12-25T06:46:12.433Z,99800.91
2022-12-25T06:48:41.177Z,99796.78
2022-12-25T06:51:08.274Z,99802.03
2022-12-25T06:53:40.004Z,99801.31
2022-12-25T06:56:10.287Z,99808.06
2022-12-25T06:58:37.108Z,99802.97
2022-12-25T07:01:16.298Z,99802.53
2022-12-25T07:03:46.868Z,99812.75
2022-12-25T07:06:13.582Z,99816.78
2022-12-25T07:08:40.276Z,99823.25
2022-12-25T07:11:07.657Z,99819.91
2022-12-25T07:13:34.574Z,99823.56
2022-12-25T07:16:04.159Z,99817.97
2022-12-25T07:18:32.405Z,99819.63
2022-12-25T07:21:02.198Z,99814.47
2022-12-25T07:23:29.020Z,99812.19
2022-12-25T07:25:56.866Z,99822.66
2022-12-25T07:28:23.745Z,99821.78
2022-12-25T07:30:50.495Z,99825.28
2022-12-25T07:33:18.008Z,99833.03
2022-12-25T07:35:44.729Z,99835.03
2022-12-25T07:38:11.727Z,99840.88
2022-12-25T07:40:38.740Z,99850.59
2022-12-25T07:43:05.529Z,99859.97
2022-12-25T07:45:32.393Z,99858.94
2022-12-25T07:48:04.943Z,99863.78
2022-12-25T07:50:32.892Z,99866.53
2022-12-25T07:52:59.707Z,99874.25
2022-12-25T07:55:26.520Z,99891.97
2022-12-25T07:57:53.280Z,99882.03
2022-12-25T08:00:20.449Z,99880.25
2022-12-25T08:02:50.175Z,99888.66
2022-12-25T08:05:17.308Z,99885.16
2022-12-25T08:07:44.079Z,99881.66
2022-12-25T08:10:11.290Z,99888.66
2022-12-25T08:12:38.100Z,99885.06
2022-12-25T08:15:05.361Z,99894.75
2022-12-25T08:17:35.331Z,99900.31
2022-12-25T08:20:02.101Z,99905.69
2022-12-25T08:22:30.634Z,99914.78
2022-12-25T08:24:57.341Z,99901.88
2022-12-25T08:27:24.378Z,99898.41
2022-12-25T08:29:51.143Z,99904.88
2022-12-25T08:32:17.904Z,99916.25
2022-12-25T08:34:44.668Z,99917.75
2022-12-25T08:37:11.423Z,99920.38
2022-12-25T08:39:38.175Z,99920.53
2022-12-25T08:42:05.043Z,99923.16
2022-12-25T08:44:32.332Z,99924.13
2022-12-25T08:46:59.032Z,99919.72
2022-12-25T08:49:29.055Z,99923.34
2022-12-25T08:51:56.096Z,99935.84
2022-12-25T08:54:24.722Z,99932.34
2022-12-25T08:56:51.456Z,99935.69
2022-12-25T08:59:18.193Z,99928.94
2022-12-25T09:01:45.044Z,99929.81
2022-12-25T09:04:11.907Z,99937.50
2022-12-25T09:06:38.632Z,99939.00
2022-12-25T09:09:05.508Z,99939.72
2022-12-25T09:11:32.269Z,99940.75
2022-12-25T09:13:59.000Z,99943.88
2022-12-25T09:16:26.308Z,99955.00
2022-12-25T09:18:53.103Z,99951.44
2022-12-25T09:21:19.993Z,99955.44
2022-12-25T09:23:46.753Z,99956.91
2022-12-25T09:26:15.817Z,99976.38
2022-12-25T09:28:50.185Z,99978.59
2022-12-25T09:31:17.430Z,99965.50
2022-12-25T09:33:44.193Z,99967.69
2022-12-25T09:36:11.121Z,99974.47
2022-12-25T09:38:38.149Z,99976.38
2022-12-25T09:41:17.091Z,99971.69
2022-12-25T09:43:51.504Z,99970.28
2022-12-25T09:46:22.604Z,99976.13
2022-12-25T09:49:04.932Z,99977.25
2022-12-25T09:51:37.042Z,99975.50
2022-12-25T09:54:10.932Z,99979.19
2022-12-25T09:56:38.018Z,99980.22
2022-12-25T09:59:16.678Z,99971.31
2022-12-25T10:02:20.147Z,99982.31
2022-12-25T10:05:25.505Z,99970.78
2022-12-25T10:08:24.060Z,99979.03
2022-12-25T10:10:58.008Z,99994.69
2022-12-25T10:13:45.927Z,100003.56
2022-12-25T10:16:18.467Z,99996.06
2022-12-25T10:18:48.155Z,100006.81
2022-12-25T10:21:18.269Z,100004.88
2022-12-25T10:24:26.079Z,100013.19
2022-12-25T10:26:55.663Z,100008.13
2022-12-25T10:29:22.617Z,100015.72
2022-12-25T10:31:53.751Z,100010.31
2022-12-25T10:34:20.855Z,100018.78
2022-12-25T10:36:47.785Z,100031.19
2022-12-25T10:39:24.458Z,100022.00
2022-12-25T10:42:09.756Z,100019.91
2022-12-25T10:44:37.099Z,100022.88
2022-12-25T10:47:05.122Z,100019.38
2022-12-25T10:49:37.927Z,100012.75
2022-12-25T10:52:19.731Z,100019.91
2022-12-25T10:54:46.534Z,100019.91
2022-12-25T10:57:19.738Z,100026.22
2022-12-25T10:59:47.997Z,100022.53
2022-12-25T11:02:27.951Z,100032.53
2022-12-25T11:05:14.886Z,100029.91
2022-12-25T11:07:50.922Z,100034.06
2022-12-25T11:10:30.758Z,100034.44
2022-12-25T11:12:58.479Z,100031.00
2022-12-25T11:15:43.994Z,100038.06
2022-12-25T11:18:28.974Z,100045.25
2022-12-25T11:21:22.199Z,100048.78
2022-12-25T11:23:59.543Z,100047.53
2022-12-25T11:26:28.623Z,100035.19
2022-12-25T11:28:56.323Z,100044.72
2022-12-25T11:31:39.277Z,100038.06
2022-12-25T11:34:24.072Z,100044.28
2022-12-25T11:36:52.570Z,100045.78
2022-12-25T11:39:37.327Z,100055.56
2022-12-25T11:42:07.108Z,100049.13
2022-12-25T11:44:37.280Z,100052.59
2022-12-25T11:47:14.027Z,100051.91
2022-12-25T11:49:50.613Z,100048.78
2022-12-25T11:52:21.115Z,100055.94
2022-12-25T11:54:57.977Z,100052.97
2022-12-25T11:57:29.363Z,100066.78
2022-12-25T12:00:04.469Z,100060.16
2022-12-25T12:02:34.545Z,100070.09
2022-12-25T12:05:22.887Z,100073.78
2022-12-25T12:08:02.220Z,100073.69
2022-12-25T12:10:53.790Z,100084.88
2022-12-25T12:13:48.711Z,100085.66
2022-12-25T12:16:15.593Z,100091.44
2022-12-25T12:18:48.162Z,100087.03
2022-12-25T12:21:21.795Z,100100.78
2022-12-25T12:24:03.586Z,100101.16
2022-12-25T12:26:36.927Z,100098.81
2022-12-25T12:29:07.623Z,100089.72
2022-12-25T12:31:43.725Z,100095.75
2022-12-25T12:34:43.947Z,100095.13
2022-12-25T12:37:29.320Z,100098.44
2022-12-25T12:39:56.389Z,100092.16
2022-12-25T12:42:29.197Z,100098.44
2022-12-25T12:44:58.340Z,100101.25
2022-12-25T12:47:40.780Z,100102.97
2022-12-25T12:50:26.270Z,100104.03
2022-12-25T12:52:53.054Z,100097.75
2022-12-25T12:55:30.417Z,100104.03
2022-12-25T12:58:05.079Z,100098.09
2022-12-25T13:00:42.749Z,100100.00
2022-12-25T13:03:21.384Z,100107.03
2022-12-25T13:06:00.823Z,100109.13
2022-12-25T13:09:06.026Z,100117.84
2022-12-25T13:11:38.893Z,100115.25
2022-12-25T13:14:06.404Z,100125.31
2022-12-25T13:16:41.189Z,100131.94
2022-12-25T13:19:16.980Z,100129.91
2022-12-25T13:22:00.990Z,100132.28
2022-12-25T13:24:37.569Z,100132.19
2022-12-25T13:27:23.814Z,100147.59
2022-12-25T13:29:50.863Z,100140.44
2022-12-25T13:32:23.888Z,100141.63
2022-12-25T13:34:51.937Z,100140.34
2022-12-25T13:37:22.402Z,100141.97
2022-12-25T13:39:53.257Z,100148.63
2022-12-25T13:42:22.858Z,100143.53
2022-12-25T13:44:55.085Z,100143.72
2022-12-25T13:47:33.700Z,100144.25
2022-12-25T13:50:19.749Z,100148.66
2022-12-25T13:52:46.600Z,100157.22
2022-12-25T13:55:16.725Z,100155.84
2022-12-25T13:57:54.877Z,100154.25
2022-12-25T14:00:23.537Z,100159.84
2022-12-25T14:02:51.661Z,100157.38
2022-12-25T14:05:27.936Z,100164.22
2022-12-25T14:07:57.285Z,100168.03
2022-12-25T14:10:27.554Z,100161.25
2022-12-25T14:12:58.345Z,100168.03
2022-12-25T14:15:28.215Z,100171.00
2022-12-25T14:17:55.130Z,100168.91
2022-12-25T14:20:28.704Z,100171.72
2022-12-25T14:22:57.829Z,100163.75
2022-12-25T14:25:45.468Z,100164.03
2022-12-25T14:28:32.433Z,100172.25
2022-12-25T14:31:01.302Z,100178.69
2022-12-25T14:33:30.970Z,100181.41
2022-12-25T14:35:59.168Z,100188.31
2022-12-25T14:38:35.164Z,100194.63
2022-12-25T14:41:24.221Z,100192.53
2022-12-25T14:43:54.791Z,100200.25
2022-12-25T14:46:26.495Z,100199.63
2022-12-25T14:49:07.172Z,100195.91
2022-12-25T14:51:38.248Z,100203.94
2022-12-25T14:54:15.696Z,100197.09
2022-12-25T14:56:47.725Z,100197.09
2022-12-25T14:59:18.707Z,100194.56
2022-12-25T15:01:57.431Z,100184.50
2022-12-25T15:04:26.169Z,100196.91
2022-12-25T15:06:59.376Z,100196.91
2022-12-25T15:09:29.930Z,100186.75
2022-12-25T15:11:57.033Z,100198.75
2022-12-25T15:14:24.971Z,100197.94
2022-12-25T15:16:55.291Z,100199.72
2022-12-25T15:19:34.796Z,100201.44
2022-12-25T15:22:04.092Z,100203.03
2022-12-25T15:24:33.086Z,100202.59
2022-12-25T15:27:00.733Z,100194.78
2022-12-25T15:30:09.168Z,100195.31
2022-12-25T15:32:23.178Z,100196.22
2022-12-25T15:34:50.733Z,100210.28
2022-12-25T15:37:18.612Z,100208.59
2022-12-25T15:39:46.259Z,100218.56
2022-12-25T15:42:15.860Z,100207.75
2022-12-25T15:44:43.806Z,100216.91
2022-12-25T15:47:12.020Z,100219.34
2022-12-25T15:49:39.045Z,100228.34
2022-12-25T15:52:08.651Z,100230.78
2022-12-25T15:54:35.567Z,100229.22
2022-12-25T15:57:06.162Z,100230.47
2022-12-25T15:59:33.510Z,100233.63
2022-12-25T16:02:01.582Z,100239.56
2022-12-25T16:04:31.324Z,100233.78
2022-12-25T16:06:59.619Z,100243.25
2022-12-25T16:09:27.617Z,100242.44
2022-12-25T16:11:54.496Z,100248.41
2022-12-25T16:14:21.920Z,100249.38
2022-12-25T16:16:49.010Z,100250.25
2022-12-25T16:19:15.810Z,100252.88
2022-12-25T16:21:46.736Z,100254.53
2022-12-25T16:24:14.388Z,100252.41
2022-12-25T16:26:41.436Z,100246.53
2022-12-25T16:29:08.289Z,100243.06
2022-12-25T16:31:36.877Z,100249.69
2022-12-25T16:34:04.973Z,100255.72
2022-12-25T16:36:32.159Z,100252.59
2022-12-25T16:38:59.150Z,100258.63
2022-12-25T16:41:25.951Z,100255.50
2022-12-25T16:43:52.845Z,100262.31
2022-12-25T16:46:22.152Z,100269.25
2022-12-25T16:48:49.151Z,100268.94
2022-12-25T16:51:18.703Z,100275.91
2022-12-25T16:53:46.182Z,100283.06
2022-12-25T16:56:20.628Z,100278.34
2022-12-25T16:58:48.057Z,100284.31
2022-12-25T17:01:17.449Z,100273.47
2022-12-25T17:03:45.194Z,100265.69
2022-12-25T17:06:16.659Z,100270.06
2022-12-25T17:08:44.050Z,100266.47
2022-12-25T17:11:11.632Z,100282.25
2022-12-25T17:13:38.443Z,100277.78
2022-12-25T17:16:18.874Z,100278.97
2022-12-25T17:18:45.740Z,100280.22
2022-12-25T17:21:14.722Z,100282.88
2022-12-25T17:23:41.834Z,100286.00
2022-12-25T17:26:08.727Z,100287.94
2022-12-25T17:28:35.585Z,100288.81
2022-12-25T17:31:07.142Z,100296.34
2022-12-25T17:33:38.819Z,100298.47
2022-12-25T17:36:08.491Z,100294.88
2022-12-25T17:38:35.927Z,100300.81
2022-12-25T17:41:05.642Z,100296.66
2022-12-25T17:43:34.697Z,100304.50
2022-12-25T17:46:11.118Z,100303.16
2022-12-25T17:48:38.209Z,100309.22
2022-12-25T17:51:08.276Z,100305.88
2022-12-25T17:53:36.919Z,100303.34
2022-12-25T17:56:04.122Z,100305.81
2022-12-25T17:58:31.433Z,100313.50
2022-12-25T18:00:58.872Z,100314.50
2022-12-25T18:03:25.709Z,100319.25
2022-12-25T18:05:52.513Z,100318.66
2022-12-25T18:08:19.348Z,100321.28
2022-12-25T18:10:46.185Z,100318.97
2022-12-25T18:13:13.020Z,100321.50
2022-12-25T18:15:41.321Z,100317.28
2022-12-25T18:18:08.832Z,100321.09
2022-12-25T18:20:40.242Z,100318.06
2022-12-25T18:23:07.762Z,100318.81
2022-12-25T18:25:34.636Z,100317.75
2022-12-25T18:28:02.810Z,100315.00
2022-12-25T18:30:29.837Z,100314.34
2022-12-25T18:32:56.622Z,100325.53
2022-12-25T18:35:29.008Z,100328.25
2022-12-25T18:37:56.530Z,100335.44
2022-12-25T18:40:23.789Z,100340.91
2022-12-25T18:42:59.379Z,100336.59
2022-12-25T18:45:29.671Z,100347.56
2022-12-25T18:47:56.756Z,100349.09
2022-12-25T18:50:23.515Z,100350.84
2022-12-25T18:52:51.638Z,100347.56
2022-12-25T18:55:20.164Z,100347.63
2022-12-25T18:57:47.872Z,100353.69
2022-12-25T19:00:15.031Z,100351.22
2022-12-25T19:02:41.937Z,100356.50
2022-12-25T19:05:09.082Z,100352.97
2022-12-25T19:07:36.646Z,100361.38
2022-12-25T19:10:05.056Z,100360.41
2022-12-25T19:12:32.021Z,100359.25
2022-12-25T19:14:58.876Z,100358.47
2022-12-25T19:17:31.520Z,100349.09
2022-12-25T19:19:59.237Z,100354.88
2022-12-25T19:22:26.515Z,100362.56
2022-12-25T19:24:53.311Z,100369.38
2022-12-25T19:27:20.418Z,100366.06
2022-12-25T19:29:47.485Z,100365.22
2022-12-25T19:32:14.375Z,100374.66
2022-12-25T19:34:41.345Z,100373.59
2022-12-25T19:37:08.277Z,100370.94
2022-12-25T19:39:35.160Z,100375.06
2022-12-25T19:42:01.984Z,100382.00
2022-12-25T19:44:28.941Z,100384.59
2022-12-25T19:46:55.946Z,100392.16
2022-12-25T19:49:22.796Z,100386.97
2022-12-25T19:51:49.987Z,100392.81
2022-12-25T19:54:20.683Z,100391.94
2022-12-25T19:56:48.905Z,100383.53
2022-12-25T19:59:15.838Z,100394.59
2022-12-25T20:01:43.518Z,100389.13
2022-12-25T20:04:10.878Z,100396.44
2022-12-25T20:06:39.630Z,100386.22
2022-12-25T20:09:09.476Z,100388.44
2022-12-25T20:11:37.794Z,100389.16
2022-12-25T20:14:06.727Z,100385.03
2022-12-25T20:16:37.835Z,100394.47
2022-12-25T20:19:05.639Z,100390.31
2022-12-25T20:21:32.601Z,100392.94
2022-12-25T20:23:59.535Z,100394.22
2022-12-25T20:26:29.347Z,100394.31
2022-12-25T20:28:57.071Z,100396.34
2022-12-25T20:31:29.199Z,100400.06
2022-12-25T20:33:57.930Z,100397.34
2022-12-25T20:36:26.633Z,100393.53
2022-12-25T20:38:57.266Z,100395.09
2022-12-25T20:41:27.548Z,100388.00
2022-12-25T20:43:55.890Z,100398.91
2022-12-25T20:46:23.561Z,100403.09
2022-12-25T20:48:50.440Z,100407.47
2022-12-25T20:51:19.895Z,100407.88
2022-12-25T20:53:47.134Z,100411.38
2022-12-25T20:56:16.091Z,100411.38
2022-12-25T20:58:43.341Z,100402.00
2022-12-25T21:01:15.856Z,100408.47
2022-12-25T21:03:43.081Z,100408.47
2022-12-25T21:06:10.995Z,100407.56
2022-12-25T21:08:38.716Z,100412.84
2022-12-25T21:11:20.795Z,100418.97
2022-12-25T21:13:53.414Z,100426.78
2022-12-25T21:16:22.590Z,100429.31
2022-12-25T21:18:51.686Z,100425.22
2022-12-25T21:21:19.450Z,100423.84
2022-12-25T21:23:46.303Z,100427.34
2022-12-25T21:26:21.478Z,100425.03
2022-12-25T21:28:53.423Z,100424.63
2022-12-25T21:31:21.248Z,100425.53
2022-12-25T21:33:55.043Z,100423.06
2022-12-25T21:36:27.300Z,100425.03
2022-12-25T21:39:03.953Z,100425.19
2022-12-25T21:41:32.211Z,100426.59
2022-12-25T21:43:59.680Z,100429.31
2022-12-25T21:46:28.105Z,100430.88
2022-12-25T21:48:55.273Z,100439.25
2022-12-25T21:51:47.159Z,100431.38
2022-12-25T21:54:14.802Z,100435.84
2022-12-25T21:56:45.298Z,100432.34
2022-12-25T21:59:15.342Z,100433.78
2022-12-25T22:01:42.824Z,100436.22
2022-12-25T22:04:10.486Z,100432.16
2022-12-25T22:06:55.866Z,100428.16
2022-12-25T22:09:23.135Z,100435.38
2022-12-25T22:12:08.459Z,100433.81
2022-12-25T22:14:54.147Z,100440.44
2022-12-25T22:17:42.096Z,100435.44
2022-12-25T22:20:15.244Z,100421.91
2022-12-25T22:22:42.039Z,100434.22
2022-12-25T22:25:09.277Z,100431.84
2022-12-25T22:27:38.126Z,100428.34
2022-12-25T22:30:06.915Z,100430.78
2022-12-25T22:32:34.043Z,100428.34
2022-12-25T22:35:00.845Z,100432.53
2022-12-25T22:37:27.935Z,100428.34
2022-12-25T22:39:54.676Z,100435.06
2022-12-25T22:42:21.600Z,100431.66
2022-12-25T22:44:48.353Z,100430.09
2022-12-25T22:47:15.456Z,100434.22
2022-12-25T22:49:42.185Z,100433.25
2022-12-25T22:52:10.131Z,100431.66
2022-12-25T22:54:37.672Z,100434.38
2022-12-25T22:57:04.874Z,100438.69
2022-12-25T22:59:33.022Z,100441.53
2022-12-25T23:02:00.499Z,100443.38
2022-12-25T23:04:28.244Z,100447.56
2022-12-25T23:06:55.045Z,100449.19
2022-12-25T23:09:27.613Z,100454.28
2022-12-25T23:11:56.474Z,100453.41
2022-12-25T23:14:39.509Z,100455.66
2022-12-25T23:17:29.003Z,100454.88
2022-12-25T23:20:19.028Z,100461.81
2022-12-25T23:23:05.257Z,100464.25
2022-12-25T23:25:52.702Z,100464.25
2022-12-25T23:28:39.825Z,100459.16
2022-12-25T23:31:07.155Z,100458.56
2022-12-25T23:33:34.015Z,100470.66
2022-12-25T23:36:00.875Z,100472.44
2022-12-25T23:38:27.892Z,100472.53
2022-12-25T23:40:54.732Z,100470.09
2022-12-25T23:43:21.446Z,100470.28
2022-12-25T23:45:48.266Z,100479.06
2022-12-25T23:48:15.610Z,100476.91
2022-12-25T23:50:42.372Z,100485.66
2022-12-25T23:53:10.997Z,100491.91
2022-12-25T23:55:37.779Z,100482.56
2022-12-25T23:58:04.962Z,100478.47
